sensor_id;sensor_type;location;lat;lon;timestamp;P1;durP1;ratioP1;P2;durP2;ratioP2
29238;SDS011;16267;48.194;11.546;2022-09-09T04:03:58;2.20;;;1.00;;
29238;SDS011;16267;48.194;11.546;2022-09-09T04:06:24;3.55;;;1.02;;
29238;SDS011;16267;48.194;11.546;2022-09-09T04:08:51;4.38;;;0.90;;
29238;SDS011;16267;48.194;11.546;2022-09-09T04:11:17;7.78;;;1.15;;
29238;SDS011;16267;48.194;11.546;2022-09-09T04:16:11;2.70;;;1.02;;
29238;SDS011;16267;48.194;11.546;2022-09-09T04:18:40;5.88;;;1.35;;
29238;SDS011;16267;48.194;11.546;2022-09-09T04:21:08;2.78;;;1.00;;
29238;SDS011;16267;48.194;11.546;2022-09-09T04:23:35;3.78;;;1.00;;
29238;SDS011;16267;48.194;11.546;2022-09-09T04:26:01;2.70;;;1.05;;
29238;SDS011;16267;48.194;11.546;2022-09-09T04:28:29;2.65;;;0.80;;
29238;SDS011;16267;48.194;11.546;2022-09-09T04:31:03;4.03;;;1.08;;
29238;SDS011;16267;48.194;11.546;2022-09-09T04:33:44;2.72;;;1.10;;
29238;SDS011;16267;48.194;11.546;2022-09-09T04:36:11;2.83;;;0.93;;
29238;SDS011;16267;48.194;11.546;2022-09-09T04:38:38;5.80;;;1.40;;
29238;SDS011;16267;48.194;11.546;2022-09-09T04:41:04;3.45;;;1.02;;
29238;SDS011;16267;48.194;11.546;2022-09-09T04:43:31;4.70;;;1.08;;
29238;SDS011;16267;48.194;11.546;2022-09-09T04:45:57;3.63;;;1.27;;
29238;SDS011;16267;48.194;11.546;2022-09-09T04:48:24;5.55;;;1.08;;
29238;SDS011;16267;48.194;11.546;2022-09-09T04:51:06;8.18;;;1.10;;
29238;SDS011;16267;48.194;11.546;2022-09-09T04:53:36;2.40;;;1.10;;
29238;SDS011;16267;48.194;11.546;2022-09-09T04:56:04;3.35;;;0.98;;
29238;SDS011;16267;48.194;11.546;2022-09-09T04:58:32;3.03;;;1.13;;
29238;SDS011;16267;48.194;11.546;2022-09-09T05:01:06;3.13;;;1.30;;
29238;SDS011;16267;48.194;11.546;2022-09-09T05:03:42;3.75;;;1.00;;
29238;SDS011;16267;48.194;11.546;2022-09-09T05:06:11;2.65;;;1.10;;
29238;SDS011;16267;48.194;11.546;2022-09-09T05:08:40;6.20;;;1.38;;
29238;SDS011;16267;48.194;11.546;2022-09-09T05:11:17;4.05;;;1.23;;
29238;SDS011;16267;48.194;11.546;2022-09-09T05:13:49;5.68;;;1.20;;
29238;SDS011;16267;48.194;11.546;2022-09-09T05:16:16;3.10;;;1.48;;
29238;SDS011;16267;48.194;11.546;2022-09-09T05:18:43;2.22;;;1.17;;
29238;SDS011;16267;48.194;11.546;2022-09-09T05:21:11;5.28;;;1.50;;
29238;SDS011;16267;48.194;11.546;2022-09-09T05:23:39;4.30;;;1.30;;
29238;SDS011;16267;48.194;11.546;2022-09-09T05:26:05;2.97;;;1.38;;
29238;SDS011;16267;48.194;11.546;2022-09-09T05:28:35;1.98;;;1.10;;
29238;SDS011;16267;48.194;11.546;2022-09-09T05:31:02;3.17;;;1.40;;
29238;SDS011;16267;48.194;11.546;2022-09-09T05:33:33;2.25;;;1.20;;
29238;SDS011;16267;48.194;11.546;2022-09-09T05:36:07;8.52;;;1.63;;
29238;SDS011;16267;48.194;11.546;2022-09-09T05:38:42;5.18;;;2.67;;
29238;SDS011;16267;48.194;11.546;2022-09-09T05:41:09;3.85;;;1.42;;
29238;SDS011;16267;48.194;11.546;2022-09-09T05:43:36;3.63;;;1.60;;
29238;SDS011;16267;48.194;11.546;2022-09-09T05:46:04;2.75;;;1.25;;
29238;SDS011;16267;48.194;11.546;2022-09-09T05:48:36;3.22;;;1.33;;
29238;SDS011;16267;48.194;11.546;2022-09-09T05:51:05;4.90;;;1.30;;
29238;SDS011;16267;48.194;11.546;2022-09-09T05:53:33;3.70;;;1.60;;
29238;SDS011;16267;48.194;11.546;2022-09-09T05:56:04;7.30;;;1.50;;
29238;SDS011;16267;48.194;11.546;2022-09-09T05:58:32;6.67;;;1.67;;
29238;SDS011;16267;48.194;11.546;2022-09-09T06:01:03;5.10;;;1.67;;
29238;SDS011;16267;48.194;11.546;2022-09-09T06:03:35;7.10;;;1.55;;
29238;SDS011;16267;48.194;11.546;2022-09-09T06:06:04;11.63;;;1.60;;
29238;SDS011;16267;48.194;11.546;2022-09-09T06:08:36;3.83;;;1.40;;
29238;SDS011;16267;48.194;11.546;2022-09-09T06:13:42;6.68;;;1.40;;
29238;SDS011;16267;48.194;11.546;2022-09-09T06:16:12;5.07;;;1.50;;
29238;SDS011;16267;48.194;11.546;2022-09-09T06:18:42;3.30;;;1.23;;
29238;SDS011;16267;48.194;11.546;2022-09-09T06:21:11;4.32;;;1.30;;
29238;SDS011;16267;48.194;11.546;2022-09-09T06:23:41;11.07;;;1.70;;
29238;SDS011;16267;48.194;11.546;2022-09-09T06:26:10;9.25;;;1.83;;
29238;SDS011;16267;48.194;11.546;2022-09-09T06:28:39;3.80;;;1.38;;
29238;SDS011;16267;48.194;11.546;2022-09-09T06:31:07;9.35;;;1.45;;
29238;SDS011;16267;48.194;11.546;2022-09-09T06:33:36;7.75;;;1.33;;
29238;SDS011;16267;48.194;11.546;2022-09-09T06:36:14;4.45;;;1.20;;
29238;SDS011;16267;48.194;11.546;2022-09-09T06:38:43;6.82;;;1.95;;
29238;SDS011;16267;48.194;11.546;2022-09-09T06:41:10;9.45;;;1.83;;
29238;SDS011;16267;48.194;11.546;2022-09-09T06:43:37;8.75;;;1.70;;
29238;SDS011;16267;48.194;11.546;2022-09-09T06:46:11;6.38;;;1.50;;
29238;SDS011;16267;48.194;11.546;2022-09-09T06:48:41;2.58;;;1.30;;
29238;SDS011;16267;48.194;11.546;2022-09-09T06:51:16;6.10;;;2.10;;
29238;SDS011;16267;48.194;11.546;2022-09-09T06:53:45;5.00;;;1.50;;
29238;SDS011;16267;48.194;11.546;2022-09-09T06:56:20;10.77;;;1.80;;
29238;SDS011;16267;48.194;11.546;2022-09-09T06:58:58;3.50;;;1.02;;
29238;SDS011;16267;48.194;11.546;2022-09-09T07:01:29;5.53;;;1.40;;
29238;SDS011;16267;48.194;11.546;2022-09-09T07:04:00;3.28;;;1.05;;
29238;SDS011;16267;48.194;11.546;2022-09-09T07:06:29;2.58;;;1.05;;
29238;SDS011;16267;48.194;11.546;2022-09-09T07:11:37;3.95;;;1.20;;
29238;SDS011;16267;48.194;11.546;2022-09-09T07:14:14;2.60;;;0.88;;
29238;SDS011;16267;48.194;11.546;2022-09-09T07:16:41;1.67;;;0.90;;
29238;SDS011;16267;48.194;11.546;2022-09-09T07:19:08;4.45;;;0.90;;
29238;SDS011;16267;48.194;11.546;2022-09-09T07:21:35;4.65;;;1.00;;
29238;SDS011;16267;48.194;11.546;2022-09-09T07:24:01;2.75;;;1.10;;
29238;SDS011;16267;48.194;11.546;2022-09-09T07:26:28;7.88;;;1.17;;
29238;SDS011;16267;48.194;11.546;2022-09-09T07:28:56;7.28;;;1.10;;
29238;SDS011;16267;48.194;11.546;2022-09-09T07:31:32;3.47;;;0.95;;
29238;SDS011;16267;48.194;11.546;2022-09-09T07:34:01;2.38;;;1.15;;
29238;SDS011;16267;48.194;11.546;2022-09-09T07:36:33;6.88;;;1.17;;
29238;SDS011;16267;48.194;11.546;2022-09-09T07:39:06;3.97;;;1.02;;
29238;SDS011;16267;48.194;11.546;2022-09-09T07:41:39;2.28;;;0.93;;
29238;SDS011;16267;48.194;11.546;2022-09-09T07:44:09;4.43;;;1.10;;
29238;SDS011;16267;48.194;11.546;2022-09-09T07:46:45;2.95;;;1.20;;
29238;SDS011;16267;48.194;11.546;2022-09-09T07:49:11;1.80;;;1.00;;
29238;SDS011;16267;48.194;11.546;2022-09-09T07:51:41;3.70;;;1.55;;
29238;SDS011;16267;48.194;11.546;2022-09-09T07:54:10;5.15;;;1.27;;
29238;SDS011;16267;48.194;11.546;2022-09-09T07:56:40;5.13;;;1.10;;
29238;SDS011;16267;48.194;11.546;2022-09-09T07:59:07;4.40;;;1.40;;
29238;SDS011;16267;48.194;11.546;2022-09-09T08:01:35;3.65;;;1.25;;
29238;SDS011;16267;48.194;11.546;2022-09-09T08:04:05;6.07;;;1.20;;
29238;SDS011;16267;48.194;11.546;2022-09-09T08:06:36;3.15;;;1.10;;
29238;SDS011;16267;48.194;11.546;2022-09-09T08:09:04;4.35;;;1.70;;
29238;SDS011;16267;48.194;11.546;2022-09-09T08:11:33;5.03;;;1.15;;
29238;SDS011;16267;48.194;11.546;2022-09-09T08:14:00;4.65;;;1.25;;
29238;SDS011;16267;48.194;11.546;2022-09-09T08:16:31;2.17;;;1.17;;
29238;SDS011;16267;48.194;11.546;2022-09-09T08:19:02;2.92;;;1.27;;
29238;SDS011;16267;48.194;11.546;2022-09-09T08:21:29;2.88;;;1.20;;
29238;SDS011;16267;48.194;11.546;2022-09-09T08:23:58;5.50;;;1.73;;
29238;SDS011;16267;48.194;11.546;2022-09-09T08:26:30;4.72;;;1.30;;
29238;SDS011;16267;48.194;11.546;2022-09-09T08:29:02;7.68;;;1.35;;
29238;SDS011;16267;48.194;11.546;2022-09-09T08:31:35;4.05;;;1.50;;
29238;SDS011;16267;48.194;11.546;2022-09-09T08:34:07;4.93;;;1.30;;
29238;SDS011;16267;48.194;11.546;2022-09-09T08:36:35;7.20;;;1.48;;
29238;SDS011;16267;48.194;11.546;2022-09-09T08:39:07;4.28;;;1.30;;
29238;SDS011;16267;48.194;11.546;2022-09-09T09:12:02;3.42;;;1.48;;
29238;SDS011;16267;48.194;11.546;2022-09-09T09:14:51;5.55;;;1.88;;
29238;SDS011;16267;48.194;11.546;2022-09-09T09:17:18;2.63;;;1.20;;
29238;SDS011;16267;48.194;11.546;2022-09-09T09:19:47;3.80;;;1.25;;
29238;SDS011;16267;48.194;11.546;2022-09-09T09:28:02;2.45;;;1.33;;
29238;SDS011;16267;48.194;11.546;2022-09-09T09:33:33;3.08;;;1.35;;
29238;SDS011;16267;48.194;11.546;2022-09-09T09:36:05;2.53;;;1.05;;
29238;SDS011;16267;48.194;11.546;2022-09-09T09:38:33;5.72;;;1.40;;
29238;SDS011;16267;48.194;11.546;2022-09-09T09:41:01;3.95;;;1.40;;
29238;SDS011;16267;48.194;11.546;2022-09-09T09:43:32;6.47;;;1.58;;
29238;SDS011;16267;48.194;11.546;2022-09-09T09:46:02;7.72;;;2.20;;
29238;SDS011;16267;48.194;11.546;2022-09-09T09:48:29;5.45;;;1.60;;
29238;SDS011;16267;48.194;11.546;2022-09-09T09:51:09;4.18;;;1.60;;
29238;SDS011;16267;48.194;11.546;2022-09-09T09:53:40;5.32;;;1.10;;
29238;SDS011;16267;48.194;11.546;2022-09-09T09:56:08;4.95;;;1.17;;
29238;SDS011;16267;48.194;11.546;2022-09-09T10:03:52;3.70;;;1.00;;
29238;SDS011;16267;48.194;11.546;2022-09-09T10:06:45;1.65;;;0.88;;
29238;SDS011;16267;48.194;11.546;2022-09-09T10:09:22;3.83;;;0.90;;
29238;SDS011;16267;48.194;11.546;2022-09-09T10:12:12;1.90;;;1.00;;
29238;SDS011;16267;48.194;11.546;2022-09-09T10:21:40;3.85;;;0.80;;
29238;SDS011;16267;48.194;11.546;2022-09-09T10:30:18;6.95;;;1.60;;
29238;SDS011;16267;48.194;11.546;2022-09-09T10:32:59;3.05;;;0.98;;
29238;SDS011;16267;48.194;11.546;2022-09-09T10:36:02;2.90;;;1.00;;
29238;SDS011;16267;48.194;11.546;2022-09-09T10:38:47;3.45;;;0.95;;
29238;SDS011;16267;48.194;11.546;2022-09-09T10:56:06;2.28;;;0.88;;
29238;SDS011;16267;48.194;11.546;2022-09-09T10:58:48;3.03;;;0.90;;
29238;SDS011;16267;48.194;11.546;2022-09-09T11:01:24;2.78;;;0.98;;
29238;SDS011;16267;48.194;11.546;2022-09-09T11:04:01;3.22;;;1.33;;
29238;SDS011;16267;48.194;11.546;2022-09-09T11:06:42;2.45;;;1.00;;
29238;SDS011;16267;48.194;11.546;2022-09-09T11:09:18;2.05;;;0.82;;
29238;SDS011;16267;48.194;11.546;2022-09-09T11:11:58;2.70;;;0.85;;
29238;SDS011;16267;48.194;11.546;2022-09-09T11:17:28;3.03;;;1.10;;
29238;SDS011;16267;48.194;11.546;2022-09-09T11:20:12;5.00;;;1.15;;
29238;SDS011;16267;48.194;11.546;2022-09-09T11:22:44;3.08;;;0.70;;
29238;SDS011;16267;48.194;11.546;2022-09-09T11:31:32;2.22;;;0.95;;
29238;SDS011;16267;48.194;11.546;2022-09-09T11:34:34;1.95;;;0.70;;
29238;SDS011;16267;48.194;11.546;2022-09-09T11:37:28;1.25;;;0.60;;
29238;SDS011;16267;48.194;11.546;2022-09-09T11:40:23;1.60;;;0.63;;
29238;SDS011;16267;48.194;11.546;2022-09-09T11:43:01;3.45;;;1.05;;
29238;SDS011;16267;48.194;11.546;2022-09-09T11:45:37;2.47;;;0.55;;
29238;SDS011;16267;48.194;11.546;2022-09-09T11:48:23;1.50;;;0.60;;
29238;SDS011;16267;48.194;11.546;2022-09-09T11:54:00;1.65;;;0.70;;
29238;SDS011;16267;48.194;11.546;2022-09-09T11:56:51;2.50;;;0.90;;
29238;SDS011;16267;48.194;11.546;2022-09-09T11:59:37;3.45;;;0.90;;
29238;SDS011;16267;48.194;11.546;2022-09-09T12:02:03;2.05;;;0.70;;
29238;SDS011;16267;48.194;11.546;2022-09-09T12:04:59;2.70;;;0.80;;
29238;SDS011;16267;48.194;11.546;2022-09-09T12:07:38;2.60;;;0.60;;
29238;SDS011;16267;48.194;11.546;2022-09-09T12:10:29;3.03;;;0.70;;
29238;SDS011;16267;48.194;11.546;2022-09-09T12:13:07;1.45;;;0.50;;
29238;SDS011;16267;48.194;11.546;2022-09-09T12:15:51;4.07;;;0.68;;
29238;SDS011;16267;48.194;11.546;2022-09-09T12:18:24;3.47;;;0.70;;
29238;SDS011;16267;48.194;11.546;2022-09-09T12:24:10;2.35;;;0.80;;
29238;SDS011;16267;48.194;11.546;2022-09-09T12:26:57;2.85;;;0.63;;
29238;SDS011;16267;48.194;11.546;2022-09-09T12:32:23;2.08;;;0.57;;
29238;SDS011;16267;48.194;11.546;2022-09-09T12:35:02;2.28;;;0.60;;
29238;SDS011;16267;48.194;11.546;2022-09-09T12:37:42;3.17;;;0.75;;
29238;SDS011;16267;48.194;11.546;2022-09-09T12:40:26;1.85;;;0.50;;
29238;SDS011;16267;48.194;11.546;2022-09-09T12:42:56;1.60;;;0.60;;
29238;SDS011;16267;48.194;11.546;2022-09-09T12:45:26;4.18;;;0.82;;
29238;SDS011;16267;48.194;11.546;2022-09-09T12:48:02;3.05;;;0.60;;
29238;SDS011;16267;48.194;11.546;2022-09-09T12:50:37;2.08;;;0.60;;
29238;SDS011;16267;48.194;11.546;2022-09-09T12:53:17;3.28;;;0.50;;
29238;SDS011;16267;48.194;11.546;2022-09-09T12:55:59;1.17;;;0.57;;
29238;SDS011;16267;48.194;11.546;2022-09-09T12:58:35;2.85;;;0.80;;
29238;SDS011;16267;48.194;11.546;2022-09-09T13:01:03;2.83;;;0.50;;
29238;SDS011;16267;48.194;11.546;2022-09-09T13:03:31;2.10;;;0.65;;
29238;SDS011;16267;48.194;11.546;2022-09-09T13:06:09;2.70;;;0.50;;
29238;SDS011;16267;48.194;11.546;2022-09-09T13:08:38;0.77;;;0.47;;
29238;SDS011;16267;48.194;11.546;2022-09-09T13:11:06;4.57;;;0.63;;
29238;SDS011;16267;48.194;11.546;2022-09-09T13:13:38;0.93;;;0.60;;
29238;SDS011;16267;48.194;11.546;2022-09-09T13:16:23;1.50;;;0.60;;
29238;SDS011;16267;48.194;11.546;2022-09-09T13:18:56;2.88;;;0.70;;
29238;SDS011;16267;48.194;11.546;2022-09-09T13:21:39;1.13;;;0.60;;
29238;SDS011;16267;48.194;11.546;2022-09-09T13:24:06;2.75;;;0.68;;
29238;SDS011;16267;48.194;11.546;2022-09-09T13:27:02;1.90;;;0.50;;
29238;SDS011;16267;48.194;11.546;2022-09-09T13:29:52;0.80;;;0.50;;
29238;SDS011;16267;48.194;11.546;2022-09-09T13:32:23;0.95;;;0.40;;
29238;SDS011;16267;48.194;11.546;2022-09-09T13:34:55;0.85;;;0.60;;
29238;SDS011;16267;48.194;11.546;2022-09-09T13:37:34;3.85;;;0.70;;
29238;SDS011;16267;48.194;11.546;2022-09-09T13:40:06;3.65;;;0.60;;
29238;SDS011;16267;48.194;11.546;2022-09-09T13:42:43;2.58;;;0.50;;
29238;SDS011;16267;48.194;11.546;2022-09-09T13:45:17;2.92;;;0.40;;
29238;SDS011;16267;48.194;11.546;2022-09-09T13:47:46;2.65;;;0.57;;
29238;SDS011;16267;48.194;11.546;2022-09-09T13:50:29;3.15;;;0.40;;
29238;SDS011;16267;48.194;11.546;2022-09-09T13:52:56;3.83;;;0.75;;
29238;SDS011;16267;48.194;11.546;2022-09-09T13:55:24;1.83;;;0.60;;
29238;SDS011;16267;48.194;11.546;2022-09-09T14:00:23;3.45;;;0.50;;
29238;SDS011;16267;48.194;11.546;2022-09-09T14:02:49;0.65;;;0.40;;
29238;SDS011;16267;48.194;11.546;2022-09-09T14:05:16;1.67;;;0.57;;
29238;SDS011;16267;48.194;11.546;2022-09-09T14:07:43;2.90;;;0.50;;
29238;SDS011;16267;48.194;11.546;2022-09-09T14:10:10;2.05;;;0.60;;
29238;SDS011;16267;48.194;11.546;2022-09-09T14:12:37;0.75;;;0.50;;
29238;SDS011;16267;48.194;11.546;2022-09-09T14:15:04;0.85;;;0.35;;
29238;SDS011;16267;48.194;11.546;2022-09-09T14:17:32;2.40;;;0.75;;
29238;SDS011;16267;48.194;11.546;2022-09-09T14:19:58;3.80;;;0.60;;
29238;SDS011;16267;48.194;11.546;2022-09-09T14:22:25;0.98;;;0.40;;
29238;SDS011;16267;48.194;11.546;2022-09-09T14:24:50;1.83;;;0.60;;
29238;SDS011;16267;48.194;11.546;2022-09-09T14:27:17;0.85;;;0.45;;
29238;SDS011;16267;48.194;11.546;2022-09-09T14:29:44;3.38;;;0.40;;
29238;SDS011;16267;48.194;11.546;2022-09-09T14:32:11;2.92;;;0.40;;
29238;SDS011;16267;48.194;11.546;2022-09-09T14:34:37;3.03;;;0.60;;
29238;SDS011;16267;48.194;11.546;2022-09-09T14:37:03;1.58;;;0.60;;
29238;SDS011;16267;48.194;11.546;2022-09-09T14:39:29;1.48;;;0.70;;
29238;SDS011;16267;48.194;11.546;2022-09-09T14:41:55;2.40;;;0.70;;
29238;SDS011;16267;48.194;11.546;2022-09-09T14:44:21;1.42;;;0.60;;
29238;SDS011;16267;48.194;11.546;2022-09-09T14:46:47;2.30;;;0.70;;
29238;SDS011;16267;48.194;11.546;2022-09-09T14:49:15;1.75;;;0.70;;
29238;SDS011;16267;48.194;11.546;2022-09-09T14:51:41;2.45;;;0.75;;
29238;SDS011;16267;48.194;11.546;2022-09-09T14:54:07;1.65;;;0.50;;
29238;SDS011;16267;48.194;11.546;2022-09-09T14:56:33;2.00;;;0.68;;
29238;SDS011;16267;48.194;11.546;2022-09-09T14:58:59;1.30;;;0.50;;
29238;SDS011;16267;48.194;11.546;2022-09-09T15:01:26;2.10;;;0.55;;
29238;SDS011;16267;48.194;11.546;2022-09-09T15:03:54;3.17;;;0.68;;
29238;SDS011;16267;48.194;11.546;2022-09-09T15:06:23;3.10;;;0.70;;
29238;SDS011;16267;48.194;11.546;2022-09-09T15:08:51;3.13;;;0.77;;
29238;SDS011;16267;48.194;11.546;2022-09-09T15:11:18;1.83;;;0.63;;
29238;SDS011;16267;48.194;11.546;2022-09-09T15:13:45;3.83;;;0.70;;
29238;SDS011;16267;48.194;11.546;2022-09-09T15:16:13;1.80;;;0.50;;
29238;SDS011;16267;48.194;11.546;2022-09-09T15:18:42;4.13;;;0.73;;
29238;SDS011;16267;48.194;11.546;2022-09-09T15:21:14;6.35;;;1.27;;
29238;SDS011;16267;48.194;11.546;2022-09-09T15:23:44;2.90;;;0.63;;
29238;SDS011;16267;48.194;11.546;2022-09-09T15:26:10;2.28;;;0.70;;
29238;SDS011;16267;48.194;11.546;2022-09-09T15:28:40;2.72;;;0.60;;
29238;SDS011;16267;48.194;11.546;2022-09-09T15:31:25;4.50;;;0.63;;
29238;SDS011;16267;48.194;11.546;2022-09-09T15:33:57;1.20;;;0.45;;
29238;SDS011;16267;48.194;11.546;2022-09-09T15:36:34;5.97;;;0.95;;
29238;SDS011;16267;48.194;11.546;2022-09-09T15:39:02;2.53;;;0.90;;
29238;SDS011;16267;48.194;11.546;2022-09-09T15:41:32;2.05;;;0.60;;
29238;SDS011;16267;48.194;11.546;2022-09-09T15:43:58;1.90;;;0.50;;
29238;SDS011;16267;48.194;11.546;2022-09-09T15:46:40;2.58;;;0.70;;
29238;SDS011;16267;48.194;11.546;2022-09-09T15:49:25;3.35;;;0.70;;
29238;SDS011;16267;48.194;11.546;2022-09-09T15:51:52;3.97;;;0.80;;
29238;SDS011;16267;48.194;11.546;2022-09-09T15:54:23;3.83;;;0.70;;
29238;SDS011;16267;48.194;11.546;2022-09-09T15:56:57;2.65;;;0.90;;
29238;SDS011;16267;48.194;11.546;2022-09-09T15:59:26;4.88;;;0.80;;
29238;SDS011;16267;48.194;11.546;2022-09-09T16:01:54;2.72;;;0.60;;
29238;SDS011;16267;48.194;11.546;2022-09-09T16:04:21;3.13;;;0.60;;
29238;SDS011;16267;48.194;11.546;2022-09-09T16:06:52;2.60;;;0.73;;
29238;SDS011;16267;48.194;11.546;2022-09-09T16:09:21;2.38;;;0.93;;
29238;SDS011;16267;48.194;11.546;2022-09-09T16:11:47;2.47;;;0.77;;
29238;SDS011;16267;48.194;11.546;2022-09-09T16:14:13;3.92;;;0.77;;
29238;SDS011;16267;48.194;11.546;2022-09-09T16:16:40;2.47;;;0.50;;
29238;SDS011;16267;48.194;11.546;2022-09-09T16:19:08;0.80;;;0.38;;
29238;SDS011;16267;48.194;11.546;2022-09-09T16:21:41;2.55;;;0.40;;
29238;SDS011;16267;48.194;11.546;2022-09-09T16:24:10;1.87;;;0.73;;
29238;SDS011;16267;48.194;11.546;2022-09-09T16:26:40;3.72;;;0.75;;
29238;SDS011;16267;48.194;11.546;2022-09-09T16:29:10;2.80;;;0.63;;
29238;SDS011;16267;48.194;11.546;2022-09-09T16:31:40;2.08;;;0.70;;
29238;SDS011;16267;48.194;11.546;2022-09-09T16:34:06;3.50;;;0.80;;
29238;SDS011;16267;48.194;11.546;2022-09-09T16:36:34;2.30;;;0.68;;
29238;SDS011;16267;48.194;11.546;2022-09-09T16:39:05;5.63;;;0.90;;
29238;SDS011;16267;48.194;11.546;2022-09-09T16:41:35;1.05;;;0.60;;
29238;SDS011;16267;48.194;11.546;2022-09-09T16:44:06;1.38;;;0.40;;
29238;SDS011;16267;48.194;11.546;2022-09-09T16:46:38;2.23;;;0.60;;
29238;SDS011;16267;48.194;11.546;2022-09-09T16:49:07;2.42;;;0.70;;
29238;SDS011;16267;48.194;11.546;2022-09-09T16:51:40;1.80;;;0.50;;
29238;SDS011;16267;48.194;11.546;2022-09-09T16:54:12;6.50;;;0.55;;
29238;SDS011;16267;48.194;11.546;2022-09-09T16:56:41;4.25;;;0.57;;
29238;SDS011;16267;48.194;11.546;2022-09-09T16:59:09;2.28;;;0.70;;
29238;SDS011;16267;48.194;11.546;2022-09-09T17:01:39;2.40;;;0.60;;
29238;SDS011;16267;48.194;11.546;2022-09-09T17:04:07;3.30;;;0.63;;
29238;SDS011;16267;48.194;11.546;2022-09-09T17:06:41;2.50;;;0.73;;
29238;SDS011;16267;48.194;11.546;2022-09-09T17:09:10;2.42;;;0.70;;
29238;SDS011;16267;48.194;11.546;2022-09-09T17:11:38;2.15;;;0.80;;
29238;SDS011;16267;48.194;11.546;2022-09-09T17:14:04;3.28;;;0.88;;
29238;SDS011;16267;48.194;11.546;2022-09-09T17:16:34;2.67;;;0.90;;
29238;SDS011;16267;48.194;11.546;2022-09-09T17:19:02;2.35;;;0.73;;
29238;SDS011;16267;48.194;11.546;2022-09-09T17:21:29;1.27;;;0.52;;
29238;SDS011;16267;48.194;11.546;2022-09-09T17:23:57;2.78;;;0.90;;
29238;SDS011;16267;48.194;11.546;2022-09-09T17:26:26;2.53;;;0.90;;
29238;SDS011;16267;48.194;11.546;2022-09-09T17:28:56;3.47;;;0.63;;
29238;SDS011;16267;48.194;11.546;2022-09-09T17:31:25;3.03;;;0.73;;
29238;SDS011;16267;48.194;11.546;2022-09-09T17:33:52;1.85;;;0.60;;
29238;SDS011;16267;48.194;11.546;2022-09-09T17:36:23;3.90;;;0.95;;
29238;SDS011;16267;48.194;11.546;2022-09-09T17:38:55;2.50;;;0.85;;
29238;SDS011;16267;48.194;11.546;2022-09-09T17:41:22;3.17;;;0.85;;
29238;SDS011;16267;48.194;11.546;2022-09-09T17:43:51;3.47;;;0.88;;
29238;SDS011;16267;48.194;11.546;2022-09-09T17:46:19;2.80;;;0.90;;
29238;SDS011;16267;48.194;11.546;2022-09-09T17:48:52;4.65;;;1.05;;
29238;SDS011;16267;48.194;11.546;2022-09-09T17:51:23;2.03;;;0.90;;
29238;SDS011;16267;48.194;11.546;2022-09-09T17:53:58;3.45;;;0.98;;
29238;SDS011;16267;48.194;11.546;2022-09-09T17:56:28;6.82;;;0.93;;
29238;SDS011;16267;48.194;11.546;2022-09-09T17:58:56;1.55;;;0.93;;
29238;SDS011;16267;48.194;11.546;2022-09-09T18:01:25;2.00;;;0.80;;
29238;SDS011;16267;48.194;11.546;2022-09-09T18:03:55;3.22;;;1.00;;
29238;SDS011;16267;48.194;11.546;2022-09-09T18:06:27;1.83;;;0.98;;
29238;SDS011;16267;48.194;11.546;2022-09-09T18:08:57;1.83;;;0.88;;
29238;SDS011;16267;48.194;11.546;2022-09-09T18:11:31;4.03;;;1.33;;
29238;SDS011;16267;48.194;11.546;2022-09-09T18:14:03;2.72;;;0.88;;
29238;SDS011;16267;48.194;11.546;2022-09-09T18:16:31;3.10;;;0.70;;
29238;SDS011;16267;48.194;11.546;2022-09-09T18:19:02;3.75;;;0.90;;
29238;SDS011;16267;48.194;11.546;2022-09-09T18:21:31;3.55;;;0.70;;
29238;SDS011;16267;48.194;11.546;2022-09-09T18:23:59;1.73;;;0.70;;
29238;SDS011;16267;48.194;11.546;2022-09-09T18:26:27;1.42;;;0.80;;
29238;SDS011;16267;48.194;11.546;2022-09-09T18:28:54;3.00;;;0.85;;
29238;SDS011;16267;48.194;11.546;2022-09-09T18:31:23;3.55;;;0.90;;
29238;SDS011;16267;48.194;11.546;2022-09-09T18:33:54;3.13;;;1.08;;
29238;SDS011;16267;48.194;11.546;2022-09-09T18:36:24;4.15;;;1.20;;
29238;SDS011;16267;48.194;11.546;2022-09-09T18:38:53;4.28;;;0.60;;
29238;SDS011;16267;48.194;11.546;2022-09-09T18:41:24;1.88;;;0.88;;
29238;SDS011;16267;48.194;11.546;2022-09-09T18:43:58;1.85;;;0.88;;
29238;SDS011;16267;48.194;11.546;2022-09-09T18:46:28;5.53;;;0.80;;
29238;SDS011;16267;48.194;11.546;2022-09-09T18:48:57;3.42;;;1.25;;
29238;SDS011;16267;48.194;11.546;2022-09-09T18:51:24;2.58;;;1.33;;
29238;SDS011;16267;48.194;11.546;2022-09-09T18:53:53;3.67;;;1.10;;
29238;SDS011;16267;48.194;11.546;2022-09-09T18:56:26;5.40;;;1.17;;
29238;SDS011;16267;48.194;11.546;2022-09-09T18:58:54;3.05;;;1.15;;
29238;SDS011;16267;48.194;11.546;2022-09-09T19:01:22;3.88;;;1.35;;
29238;SDS011;16267;48.194;11.546;2022-09-09T19:03:49;2.08;;;0.77;;
29238;SDS011;16267;48.194;11.546;2022-09-09T19:06:16;3.17;;;1.00;;
29238;SDS011;16267;48.194;11.546;2022-09-09T19:08:46;1.80;;;0.88;;
29238;SDS011;16267;48.194;11.546;2022-09-09T19:11:13;2.67;;;1.00;;
29238;SDS011;16267;48.194;11.546;2022-09-09T19:14:05;3.95;;;1.80;;
29238;SDS011;16267;48.194;11.546;2022-09-09T19:16:33;3.33;;;1.20;;
29238;SDS011;16267;48.194;11.546;2022-09-09T19:19:02;2.85;;;1.33;;
29238;SDS011;16267;48.194;11.546;2022-09-09T19:21:32;3.03;;;1.10;;
29238;SDS011;16267;48.194;11.546;2022-09-09T19:24:02;2.25;;;0.82;;
29238;SDS011;16267;48.194;11.546;2022-09-09T19:26:35;4.05;;;1.17;;
29238;SDS011;16267;48.194;11.546;2022-09-09T19:29:08;3.15;;;1.10;;
29238;SDS011;16267;48.194;11.546;2022-09-09T19:31:41;2.20;;;0.85;;
29238;SDS011;16267;48.194;11.546;2022-09-09T19:34:08;3.78;;;0.80;;
29238;SDS011;16267;48.194;11.546;2022-09-09T19:36:35;2.50;;;1.10;;
29238;SDS011;16267;48.194;11.546;2022-09-09T19:39:01;2.58;;;0.70;;
29238;SDS011;16267;48.194;11.546;2022-09-09T19:41:28;3.58;;;0.85;;
29238;SDS011;16267;48.194;11.546;2022-09-09T19:43:56;3.42;;;0.80;;
29238;SDS011;16267;48.194;11.546;2022-09-09T19:46:26;5.55;;;0.70;;
29238;SDS011;16267;48.194;11.546;2022-09-09T19:48:54;3.60;;;0.60;;
29238;SDS011;16267;48.194;11.546;2022-09-09T19:51:22;2.55;;;0.75;;
29238;SDS011;16267;48.194;11.546;2022-09-09T19:53:51;4.47;;;0.70;;
29238;SDS011;16267;48.194;11.546;2022-09-09T19:56:22;4.67;;;0.70;;
29238;SDS011;16267;48.194;11.546;2022-09-09T19:58:51;2.25;;;0.93;;
29238;SDS011;16267;48.194;11.546;2022-09-09T20:01:28;4.15;;;0.63;;
29238;SDS011;16267;48.194;11.546;2022-09-09T20:04:00;2.88;;;1.30;;
29238;SDS011;16267;48.194;11.546;2022-09-09T20:06:29;2.58;;;1.00;;
29238;SDS011;16267;48.194;11.546;2022-09-09T20:09:04;4.63;;;1.00;;
29238;SDS011;16267;48.194;11.546;2022-09-09T20:11:32;2.42;;;0.90;;
29238;SDS011;16267;48.194;11.546;2022-09-09T20:13:59;1.67;;;0.82;;
29238;SDS011;16267;48.194;11.546;2022-09-09T20:16:26;5.68;;;1.70;;
29238;SDS011;16267;48.194;11.546;2022-09-09T20:18:55;4.50;;;1.77;;
29238;SDS011;16267;48.194;11.546;2022-09-09T20:21:35;3.47;;;1.10;;
29238;SDS011;16267;48.194;11.546;2022-09-09T20:24:10;8.10;;;1.30;;
29238;SDS011;16267;48.194;11.546;2022-09-09T20:26:38;3.42;;;1.23;;
29238;SDS011;16267;48.194;11.546;2022-09-09T20:29:09;2.83;;;1.10;;
29238;SDS011;16267;48.194;11.546;2022-09-09T20:31:38;2.00;;;1.00;;
29238;SDS011;16267;48.194;11.546;2022-09-09T20:34:06;4.47;;;1.02;;
29238;SDS011;16267;48.194;11.546;2022-09-09T20:36:38;3.78;;;1.17;;
29238;SDS011;16267;48.194;11.546;2022-09-09T20:39:14;4.88;;;1.23;;
29238;SDS011;16267;48.194;11.546;2022-09-09T20:41:55;2.97;;;1.23;;